Time;durP1;ratioP1;P1;durP2;ratioP2;P2;SDS_P1;SDS_P2;PMS_P1;PMS_P2;Temp;Humidity;BMP_temperature;BMP_pressure;BME280_temperature;BME280_humidity;BME280_pressure;Samples;Min_cycle;Max_cycle;Signal;HPM_P1;HPM_P2
2021/06/21 00:01:25;;;;;;;10.80;4.40;;;19.60;87.70;;;;;;5095278;28;20479;-81
2021/06/21 00:03:51;;;;;;;10.07;4.22;;;19.60;87.50;;;;;;5113496;28;20027;-79
2021/06/21 00:06:17;;;;;;;11.85;4.97;;;19.50;87.10;;;;;;5112601;28;20027;-80
2021/06/21 00:08:42;;;;;;;9.60;4.70;;;19.40;87.70;;;;;;5095163;28;20360;-79
2021/06/21 00:11:08;;;;;;;11.25;4.90;;;19.40;87.80;;;;;;5113422;28;20082;-78
2021/06/21 00:13:34;;;;;;;10.52;5.18;;;19.40;87.70;;;;;;5095018;28;20034;-79
2021/06/21 00:16:00;;;;;;;12.77;5.68;;;19.30;87.80;;;;;;5111903;28;20019;-78
2021/06/21 00:18:25;;;;;;;10.55;5.90;;;19.20;88.10;;;;;;5113234;28;20472;-78
2021/06/21 00:20:52;;;;;;;12.55;6.63;;;19.10;87.90;;;;;;5111958;28;20035;-78
2021/06/21 00:23:19;;;;;;;10.23;6.35;;;19.10;88.70;;;;;;5111930;28;20106;-78
2021/06/21 00:25:47;;;;;;;10.60;6.75;;;19.00;88.90;;;;;;5112029;28;20035;-78
2021/06/21 00:28:13;;;;;;;10.27;5.93;;;18.90;89.10;;;;;;5112623;28;20118;-79
2021/06/21 00:30:39;;;;;;;11.60;6.50;;;18.90;89.20;;;;;;5115957;28;20035;-79
2021/06/21 00:33:05;;;;;;;9.07;6.15;;;18.80;89.40;;;;;;5116118;28;20020;-77
2021/06/21 00:35:31;;;;;;;11.95;7.38;;;18.80;89.50;;;;;;5115707;28;20028;-76
2021/06/21 00:37:57;;;;;;;13.32;7.72;;;18.80;89.90;;;;;;5116795;28;20027;-77
2021/06/21 00:40:24;;;;;;;13.05;8.30;;;18.70;90.00;;;;;;5098672;28;20110;-77
2021/06/21 00:42:51;;;;;;;9.95;6.25;;;18.70;90.20;;;;;;5115672;28;20047;-77
2021/06/21 00:45:20;;;;;;;8.32;6.20;;;18.70;90.10;;;;;;5098589;28;20039;-77
2021/06/21 00:47:47;;;;;;;11.35;7.80;;;18.60;90.10;;;;;;5116026;28;20023;-79
2021/06/21 00:50:13;;;;;;;12.68;7.80;;;18.60;90.30;;;;;;5115573;28;20452;-78
2021/06/21 00:52:39;;;;;;;11.88;7.22;;;18.70;90.10;;;;;;5115740;28;20413;-79
2021/06/21 00:55:05;;;;;;;12.77;7.90;;;18.60;90.00;;;;;;5116585;28;20031;-79
2021/06/21 00:57:33;;;;;;;14.88;8.88;;;18.60;89.90;;;;;;5115102;28;20015;-79
2021/06/21 01:00:08;;;;;;;15.70;9.13;;;18.50;89.80;;;;;;5114860;28;20020;-79
2021/06/21 01:02:35;;;;;;;14.27;9.13;;;18.50;89.90;;;;;;5115059;28;20016;-81
2021/06/21 01:05:00;;;;;;;16.35;9.05;;;18.40;90.00;;;;;;5115069;28;20023;-79
2021/06/21 01:07:28;;;;;;;15.20;9.10;;;18.30;90.10;;;;;;5115272;28;20031;-80
2021/06/21 01:09:55;;;;;;;11.48;7.68;;;18.30;90.20;;;;;;5115321;28;20092;-80
2021/06/21 01:12:36;;;;;;;16.88;10.50;;;18.20;90.40;;;;;;5114868;28;20510;-79
2021/06/21 01:15:08;;;;;;;15.80;10.30;;;18.10;90.30;;;;;;5115177;28;20119;-80
2021/06/21 01:17:45;;;;;;;15.75;9.35;;;18.00;90.50;;;;;;5114790;28;20497;-80
2021/06/21 01:20:25;;;;;;;13.90;9.60;;;17.90;90.50;;;;;;5115895;28;20387;-79
2021/06/21 01:23:17;;;;;;;18.75;10.38;;;17.90;90.60;;;;;;5114719;28;20062;-79
2021/06/21 01:25:54;;;;;;;17.48;10.90;;;17.80;90.60;;;;;;5115982;28;20100;-78
2021/06/21 01:28:28;;;;;;;15.27;11.23;;;17.70;90.70;;;;;;5114535;28;20020;-80
2021/06/21 01:31:13;;;;;;;15.88;10.02;;;17.70;90.90;;;;;;5115742;28;20055;-79
2021/06/21 01:33:41;;;;;;;17.17;11.15;;;17.60;91.00;;;;;;5114517;28;20062;-78
2021/06/21 01:36:09;;;;;;;13.15;8.90;;;17.60;91.10;;;;;;5114542;28;20032;-79
2021/06/21 01:38:42;;;;;;;14.25;9.45;;;17.60;91.10;;;;;;5114279;28;20471;-78
2021/06/21 01:41:14;;;;;;;16.17;10.00;;;17.50;91.10;;;;;;5114990;28;20023;-78
2021/06/21 01:43:43;;;;;;;13.45;8.63;;;17.50;91.20;;;;;;5115412;28;20024;-78
2021/06/21 01:46:12;;;;;;;14.10;10.13;;;17.50;91.20;;;;;;5114165;28;20027;-79
2021/06/21 01:49:01;;;;;;;14.68;10.00;;;17.50;91.20;;;;;;5114301;28;20023;-78
2021/06/21 01:51:30;;;;;;;14.52;9.52;;;17.40;91.20;;;;;;5114201;28;20031;-79
2021/06/21 01:53:59;;;;;;;12.95;8.98;;;17.40;91.40;;;;;;5115397;28;20028;-80
2021/06/21 01:56:30;;;;;;;14.45;9.65;;;17.30;91.50;;;;;;5115409;28;20039;-80
2021/06/21 01:58:57;;;;;;;15.48;9.18;;;17.30;91.60;;;;;;5115246;28;20459;-80
2021/06/21 02:01:23;;;;;;;11.98;8.50;;;17.30;91.60;;;;;;5115202;28;20051;-82
2021/06/21 02:03:55;;;;;;;10.45;7.75;;;17.30;91.60;;;;;;5115220;28;20046;-80
2021/06/21 02:06:21;;;;;;;12.70;7.63;;;17.30;91.60;;;;;;5115039;28;20015;-80
2021/06/21 02:08:50;;;;;;;11.05;6.90;;;17.20;91.70;;;;;;5096822;28;20035;-80
2021/06/21 02:11:17;;;;;;;9.77;6.85;;;17.20;91.70;;;;;;5115319;28;20038;-78
2021/06/21 02:13:44;;;;;;;10.45;7.28;;;17.20;91.60;;;;;;5113613;28;20509;-78
2021/06/21 02:16:11;;;;;;;10.82;7.32;;;17.20;91.80;;;;;;5113558;28;20435;-78
2021/06/21 02:18:37;;;;;;;10.75;6.03;;;17.10;91.80;;;;;;5113739;28;20062;-79
2021/06/21 02:21:04;;;;;;;8.88;6.07;;;17.10;92.00;;;;;;5113805;28;20106;-78
2021/06/21 02:23:31;;;;;;;8.75;6.03;;;17.00;91.90;;;;;;5114861;28;20031;-79
2021/06/21 02:25:59;;;;;;;8.88;6.05;;;17.00;92.00;;;;;;5113587;28;20024;-79
2021/06/21 02:28:27;;;;;;;12.57;6.40;;;16.90;92.00;;;;;;5097682;28;20032;-79
2021/06/21 02:30:55;;;;;;;9.90;5.57;;;16.90;92.10;;;;;;5113328;28;20386;-80
2021/06/21 02:33:21;;;;;;;11.05;6.07;;;16.90;92.00;;;;;;5113314;28;20031;-79
2021/06/21 02:35:47;;;;;;;9.57;5.22;;;16.80;92.40;;;;;;5096362;28;20043;-79
2021/06/21 02:38:14;;;;;;;9.07;4.97;;;16.80;92.20;;;;;;5113240;28;20432;-80
2021/06/21 02:40:40;;;;;;;8.80;5.43;;;16.70;92.20;;;;;;5113277;28;20031;-79
2021/06/21 02:43:06;;;;;;;8.98;4.72;;;16.70;92.20;;;;;;5096238;28;20031;-79
2021/06/21 02:45:33;;;;;;;6.82;4.75;;;16.70;92.20;;;;;;5113122;28;20495;-80
2021/06/21 02:48:00;;;;;;;8.68;5.60;;;16.70;92.40;;;;;;5096518;28;20547;-80
2021/06/21 02:50:26;;;;;;;6.88;4.43;;;16.70;92.40;;;;;;5113057;28;20075;-79
2021/06/21 02:53:06;;;;;;;5.78;4.28;;;16.60;92.40;;;;;;5113387;28;20123;-78
2021/06/21 02:55:49;;;;;;;8.15;4.40;;;16.60;92.30;;;;;;5112923;28;20545;-80
2021/06/21 02:58:22;;;;;;;7.55;4.25;;;16.60;92.40;;;;;;5114053;28;20079;-80
2021/06/21 03:00:52;;;;;;;9.20;4.65;;;16.50;92.40;;;;;;5112813;28;20136;-80
2021/06/21 03:03:23;;;;;;;7.25;3.88;;;16.50;92.40;;;;;;5114083;28;20021;-80
2021/06/21 03:05:50;;;;;;;7.97;3.85;;;16.40;92.50;;;;;;5112801;28;20019;-80
2021/06/21 03:08:19;;;;;;;6.43;3.35;;;16.30;92.40;;;;;;5096155;28;20482;-79
2021/06/21 03:10:47;;;;;;;6.25;3.72;;;16.30;92.50;;;;;;5112861;28;20015;-80
2021/06/21 03:13:13;;;;;;;6.32;3.47;;;16.30;92.50;;;;;;5112715;28;20034;-81
2021/06/21 03:15:39;;;;;;;8.52;3.65;;;16.30;92.50;;;;;;5095880;28;20027;-79
2021/06/21 03:18:06;;;;;;;5.90;2.80;;;16.20;92.80;;;;;;5095938;28;20039;-79
2021/06/21 03:20:33;;;;;;;5.15;3.05;;;16.20;92.70;;;;;;5114163;28;20032;-81
2021/06/21 03:23:02;;;;;;;5.70;2.90;;;16.20;92.70;;;;;;5112830;28;20047;-79
2021/06/21 03:25:30;;;;;;;5.32;3.38;;;16.10;92.70;;;;;;5112613;28;20490;-78
2021/06/21 03:27:57;;;;;;;4.88;2.60;;;16.10;92.70;;;;;;5095945;28;20047;-79
2021/06/21 03:30:24;;;;;;;5.90;3.20;;;16.00;92.90;;;;;;5114109;28;20027;-78
2021/06/21 03:32:52;;;;;;;5.78;3.50;;;16.00;92.80;;;;;;5112614;28;20016;-79
2021/06/21 03:35:19;;;;;;;5.40;3.40;;;15.90;93.00;;;;;;5114080;28;20039;-80
2021/06/21 03:37:45;;;;;;;8.00;3.50;;;15.90;93.20;;;;;;5113904;28;20025;-79
2021/06/21 03:40:11;;;;;;;7.13;3.28;;;16.00;93.20;;;;;;5095396;28;20507;-80
2021/06/21 03:42:38;;;;;;;5.85;3.10;;;15.90;93.00;;;;;;5112503;28;20483;-80
2021/06/21 03:45:06;;;;;;;5.18;3.03;;;15.90;93.20;;;;;;5095560;28;20548;-79
2021/06/21 03:47:31;;;;;;;5.07;3.13;;;15.80;93.20;;;;;;5112420;28;20013;-82
2021/06/21 03:49:57;;;;;;;4.15;2.38;;;15.80;93.20;;;;;;5112796;28;20039;-81
2021/06/21 03:52:23;;;;;;;4.75;2.90;;;15.80;93.30;;;;;;5113651;28;20055;-83
2021/06/21 03:54:49;;;;;;;5.68;2.55;;;15.80;93.30;;;;;;5095539;28;20479;-80
2021/06/21 03:57:14;;;;;;;5.10;2.80;;;15.70;93.30;;;;;;5112628;28;20019;-80
2021/06/21 03:59:40;;;;;;;6.10;3.13;;;15.70;93.30;;;;;;5095864;28;20080;-80
2021/06/21 04:02:06;;;;;;;6.30;2.70;;;15.70;93.70;;;;;;5090358;28;20135;-80
2021/06/21 04:04:32;;;;;;;5.88;2.33;;;15.70;93.40;;;;;;5114860;28;20027;-81
2021/06/21 04:06:58;;;;;;;7.68;3.17;;;15.60;93.40;;;;;;5102138;28;20103;-80
2021/06/21 04:09:23;;;;;;;4.65;2.22;;;15.60;93.50;;;;;;5095795;28;20032;-81
2021/06/21 04:11:50;;;;;;;6.15;3.00;;;15.60;93.60;;;;;;5078126;28;20024;-80
2021/06/21 04:14:16;;;;;;;6.13;1.95;;;15.50;93.70;;;;;;5079035;28;20039;-81
2021/06/21 04:16:41;;;;;;;7.45;2.88;;;15.50;93.80;;;;;;5079773;28;20118;-81
2021/06/21 04:19:08;;;;;;;5.60;2.35;;;15.50;93.90;;;;;;5116326;28;20038;-80
2021/06/21 04:21:34;;;;;;;4.63;2.20;;;15.50;93.80;;;;;;5115910;28;20020;-79
2021/06/21 04:24:00;;;;;;;4.55;2.00;;;15.40;94.00;;;;;;5117316;28;20019;-80
2021/06/21 04:26:25;;;;;;;4.10;2.28;;;15.40;93.80;;;;;;5116593;28;20378;-81
2021/06/21 04:28:51;;;;;;;4.18;2.20;;;15.40;93.80;;;;;;5117554;28;20035;-80
2021/06/21 04:31:18;;;;;;;5.10;2.13;;;15.40;94.00;;;;;;5115918;28;20020;-79
2021/06/21 04:33:44;;;;;;;4.15;2.13;;;15.40;94.00;;;;;;5098998;28;20051;-78
2021/06/21 04:36:10;;;;;;;3.60;1.65;;;15.40;94.10;;;;;;5099151;28;20086;-79
2021/06/21 04:38:36;;;;;;;5.13;2.20;;;15.30;94.30;;;;;;5116550;28;20119;-80
2021/06/21 04:41:02;;;;;;;5.00;2.63;;;15.30;94.10;;;;;;5098805;28;20045;-79
2021/06/21 04:43:27;;;;;;;6.28;2.35;;;15.30;94.40;;;;;;5115539;28;20016;-78
2021/06/21 04:45:53;;;;;;;4.28;1.90;;;15.30;94.10;;;;;;5098640;28;20360;-80
2021/06/21 04:48:18;;;;;;;4.40;2.42;;;15.30;94.30;;;;;;5115649;28;20038;-81
2021/06/21 04:50:45;;;;;;;3.72;1.77;;;15.30;94.40;;;;;;5098316;28;20505;-79
2021/06/21 04:53:12;;;;;;;3.65;2.00;;;15.30;94.40;;;;;;5115418;28;20440;-79
2021/06/21 04:55:38;;;;;;;4.78;1.88;;;15.30;94.30;;;;;;5098427;28;20077;-81
2021/06/21 04:58:03;;;;;;;3.67;1.75;;;15.30;94.30;;;;;;5116710;28;20028;-80
2021/06/21 05:00:29;;;;;;;3.90;1.75;;;15.30;94.30;;;;;;5116411;28;20016;-78
2021/06/21 05:02:55;;;;;;;3.70;1.52;;;15.30;94.20;;;;;;5116813;28;20110;-79
2021/06/21 05:05:21;;;;;;;3.47;1.60;;;15.30;94.20;;;;;;5098593;28;20026;-79
2021/06/21 05:07:48;;;;;;;3.75;1.67;;;15.30;94.20;;;;;;5115257;28;20072;-79
2021/06/21 05:10:16;;;;;;;3.28;1.38;;;15.30;94.10;;;;;;5115150;28;20024;-80
2021/06/21 05:12:43;;;;;;;3.22;1.63;;;15.30;94.20;;;;;;5116471;28;20402;-79
2021/06/21 05:15:10;;;;;;;3.28;1.45;;;15.30;94.20;;;;;;5097038;28;20551;-80
2021/06/21 05:17:35;;;;;;;3.65;1.40;;;15.30;94.10;;;;;;5116307;28;20033;-80
2021/06/21 05:20:02;;;;;;;2.72;1.15;;;15.30;94.10;;;;;;5116541;28;20028;-80
2021/06/21 05:22:27;;;;;;;3.05;1.15;;;15.30;94.10;;;;;;5115034;28;20024;-80
2021/06/21 05:24:54;;;;;;;3.72;1.23;;;15.30;94.10;;;;;;5114700;28;20027;-80
2021/06/21 05:27:20;;;;;;;3.63;1.08;;;15.20;94.00;;;;;;5115033;28;20020;-80
2021/06/21 05:29:46;;;;;;;2.58;1.10;;;15.30;94.10;;;;;;5099997;28;20032;-79
2021/06/21 05:32:11;;;;;;;2.65;0.90;;;15.30;94.10;;;;;;5076445;28;20399;-79
2021/06/21 05:34:37;;;;;;;2.10;0.70;;;15.30;94.10;;;;;;5093343;28;20032;-81
2021/06/21 05:37:03;;;;;;;2.17;0.80;;;15.30;94.20;;;;;;5095115;28;20028;-79
2021/06/21 05:39:29;;;;;;;3.17;1.10;;;15.20;94.10;;;;;;5093877;28;20032;-81
2021/06/21 05:41:54;;;;;;;1.63;0.70;;;15.20;94.00;;;;;;5094133;28;20035;-82
2021/06/21 05:44:20;;;;;;;2.55;0.77;;;15.30;94.10;;;;;;5077191;28;20039;-79
2021/06/21 05:46:45;;;;;;;2.03;0.88;;;15.20;94.00;;;;;;5077150;28;20032;-80
2021/06/21 05:49:11;;;;;;;1.98;0.70;;;15.20;93.90;;;;;;5077283;28;20102;-83
2021/06/21 05:51:37;;;;;;;2.47;0.75;;;15.20;93.90;;;;;;5076880;28;20027;-79
2021/06/21 05:54:03;;;;;;;2.33;0.93;;;15.30;93.90;;;;;;5093787;28;20031;-79
2021/06/21 05:56:28;;;;;;;4.38;0.80;;;15.30;94.00;;;;;;5094127;28;20487;-79
2021/06/21 05:58:54;;;;;;;1.77;0.60;;;15.20;93.80;;;;;;5093784;28;20591;-78
2021/06/21 06:01:20;;;;;;;2.00;0.90;;;15.30;93.80;;;;;;5094943;28;20051;-78
2021/06/21 06:03:45;;;;;;;1.98;0.88;;;15.30;93.80;;;;;;5094854;28;20554;-78
2021/06/21 06:06:11;;;;;;;1.52;0.70;;;15.30;93.80;;;;;;5093943;28;20024;-79
2021/06/21 06:08:36;;;;;;;1.33;0.60;;;15.40;93.70;;;;;;5076768;28;20402;-78
2021/06/21 06:11:02;;;;;;;1.58;0.70;;;15.30;93.70;;;;;;5093932;28;20036;-79
2021/06/21 06:13:28;;;;;;;0.88;0.50;;;15.30;93.70;;;;;;5093468;28;20039;-77
2021/06/21 06:15:54;;;;;;;1.55;0.90;;;15.30;93.60;;;;;;5071701;28;20031;-78
2021/06/21 06:18:20;;;;;;;1.30;0.60;;;15.30;93.70;;;;;;5093033;28;20495;-79
2021/06/21 06:20:46;;;;;;;1.85;0.50;;;15.30;93.70;;;;;;5094699;28;20023;-78
2021/06/21 06:23:12;;;;;;;1.42;0.52;;;15.30;93.70;;;;;;5093252;28;20016;-77
2021/06/21 06:25:38;;;;;;;1.30;0.70;;;15.40;93.70;;;;;;5093113;28;20024;-78
2021/06/21 06:28:05;;;;;;;1.20;0.60;;;15.40;93.60;;;;;;5093304;28;20029;-78
2021/06/21 06:30:31;;;;;;;1.08;0.52;;;15.40;93.60;;;;;;5094505;28;20067;-79
2021/06/21 06:32:56;;;;;;;1.10;0.60;;;15.40;93.60;;;;;;5094256;28;20021;-78
2021/06/21 06:35:22;;;;;;;1.08;0.50;;;15.40;93.70;;;;;;5094448;28;20031;-78
2021/06/21 06:37:49;;;;;;;1.33;0.60;;;15.40;93.70;;;;;;5093097;28;20107;-79
2021/06/21 06:40:19;;;;;;;1.65;0.57;;;15.30;93.70;;;;;;5093178;28;20092;-78
2021/06/21 06:42:45;;;;;;;1.83;0.50;;;15.30;93.80;;;;;;5093002;28;20020;-79
2021/06/21 06:45:12;;;;;;;0.77;0.47;;;15.30;93.80;;;;;;5094457;28;20020;-79
2021/06/21 06:47:38;;;;;;;1.35;0.73;;;15.30;93.90;;;;;;5076006;28;20420;-80
2021/06/21 06:50:05;;;;;;;1.40;0.60;;;15.30;93.90;;;;;;5092788;28;20403;-80
2021/06/21 06:52:31;;;;;;;3.03;1.00;;;15.30;94.00;;;;;;5092737;28;20514;-79
2021/06/21 06:57:43;;;;;;;0.77;0.40;;;15.30;94.00;;;;;;5090821;28;20116;-79
2021/06/21 07:00:13;;;;;;;1.40;0.73;;;15.30;94.00;;;;;;5076122;28;20081;-79
2021/06/21 07:02:44;;;;;;;1.88;0.57;;;15.30;94.00;;;;;;5093806;28;20400;-79
2021/06/21 07:05:10;;;;;;;2.13;0.60;;;15.30;94.00;;;;;;5075969;28;20058;-78
2021/06/21 07:07:36;;;;;;;1.33;0.60;;;15.30;94.00;;;;;;5075690;28;20028;-79
2021/06/21 07:10:03;;;;;;;1.38;0.50;;;15.20;94.00;;;;;;5093441;28;20093;-80
2021/06/21 07:12:28;;;;;;;1.30;0.60;;;15.30;94.10;;;;;;5093314;28;20058;-79
2021/06/21 07:14:54;;;;;;;1.58;0.70;;;15.30;94.10;;;;;;5091860;28;20036;-79
2021/06/21 07:17:20;;;;;;;2.17;0.80;;;15.30;94.10;;;;;;5075293;28;20040;-79
2021/06/21 07:19:45;;;;;;;2.05;0.50;;;15.30;94.10;;;;;;5092174;28;20479;-78
2021/06/21 07:22:11;;;;;;;2.08;0.60;;;15.30;94.10;;;;;;5092280;28;20060;-79
2021/06/21 07:24:37;;;;;;;1.17;0.50;;;15.30;94.10;;;;;;5075454;28;20024;-78
2021/06/21 07:27:04;;;;;;;0.80;0.50;;;15.30;94.10;;;;;;5092162;28;20035;-79
2021/06/21 07:29:30;;;;;;;2.40;0.68;;;15.40;94.00;;;;;;5075243;28;20387;-78
2021/06/21 07:31:55;;;;;;;0.90;0.40;;;15.40;94.10;;;;;;5092151;28;20103;-78
2021/06/21 07:34:21;;;;;;;0.90;0.50;;;15.50;94.30;;;;;;5092185;28;20032;-80
2021/06/21 07:36:47;;;;;;;1.17;0.70;;;15.40;94.00;;;;;;5075331;28;20119;-79
2021/06/21 07:39:13;;;;;;;2.25;0.75;;;15.40;94.00;;;;;;5095715;28;20085;-77
2021/06/21 07:41:39;;;;;;;0.85;0.50;;;15.50;94.00;;;;;;5097533;28;20137;-78
2021/06/21 07:44:05;;;;;;;1.00;0.50;;;15.50;94.00;;;;;;5096141;28;20043;-80
2021/06/21 07:46:32;;;;;;;1.15;0.60;;;15.60;94.10;;;;;;5079372;28;20483;-78
2021/06/21 07:48:58;;;;;;;1.20;0.50;;;15.60;94.10;;;;;;5095961;28;20040;-77
2021/06/21 07:51:24;;;;;;;1.10;0.50;;;15.60;94.10;;;;;;5097079;28;20424;-78
2021/06/21 07:53:53;;;;;;;1.40;0.52;;;15.60;94.00;;;;;;5095471;28;20390;-79
2021/06/21 07:56:22;;;;;;;1.00;0.40;;;15.60;94.00;;;;;;5097208;28;20020;-80
2021/06/21 07:58:48;;;;;;;1.52;0.70;;;15.60;93.90;;;;;;5095301;28;20039;-78
2021/06/21 08:01:14;;;;;;;1.55;0.65;;;15.70;93.90;;;;;;5095783;28;20083;-79
2021/06/21 08:03:41;;;;;;;1.30;0.63;;;15.70;93.80;;;;;;5096049;28;20027;-79
2021/06/21 08:06:10;;;;;;;1.52;0.70;;;15.70;93.80;;;;;;5097263;28;20024;-79
2021/06/21 08:08:37;;;;;;;1.08;0.57;;;15.70;93.80;;;;;;5079303;28;20024;-80
2021/06/21 08:11:03;;;;;;;0.93;0.50;;;15.70;93.70;;;;;;5078932;28;20024;-79
2021/06/21 08:13:29;;;;;;;1.13;0.60;;;15.70;93.60;;;;;;5096016;28;20032;-79
2021/06/21 08:15:55;;;;;;;1.92;0.65;;;15.70;93.60;;;;;;5078904;28;20494;-78
2021/06/21 08:18:21;;;;;;;3.22;0.77;;;15.70;93.60;;;;;;5097026;28;20028;-79
2021/06/21 08:20:48;;;;;;;1.98;0.70;;;15.70;93.70;;;;;;5095427;28;20436;-78
2021/06/21 08:23:15;;;;;;;2.55;0.70;;;15.70;93.60;;;;;;5095680;28;20028;-79
2021/06/21 08:25:42;;;;;;;1.13;0.60;;;15.70;93.60;;;;;;5095534;28;20012;-79
2021/06/21 08:28:08;;;;;;;3.35;0.90;;;15.70;93.70;;;;;;5096707;28;20081;-79
2021/06/21 08:30:34;;;;;;;1.42;0.73;;;15.70;93.80;;;;;;5096675;28;20095;-79
2021/06/21 08:33:00;;;;;;;2.63;1.00;;;15.70;93.70;;;;;;5078443;28;20028;-78
2021/06/21 08:35:26;;;;;;;1.75;0.80;;;15.80;93.70;;;;;;5094678;28;20028;-78
2021/06/21 08:37:52;;;;;;;1.65;0.70;;;15.80;93.60;;;;;;5094763;28;20035;-79
2021/06/21 08:40:21;;;;;;;2.47;0.68;;;15.80;93.60;;;;;;5095054;28;20032;-79
2021/06/21 08:42:47;;;;;;;1.98;0.80;;;15.80;93.70;;;;;;5095376;28;20032;-81
2021/06/21 08:45:13;;;;;;;2.50;0.98;;;15.80;93.60;;;;;;5096307;28;20103;-78
2021/06/21 08:47:39;;;;;;;2.45;1.00;;;15.80;93.60;;;;;;5096210;28;20016;-79
2021/06/21 08:50:07;;;;;;;1.67;0.82;;;15.80;93.60;;;;;;5095021;28;20502;-80
2021/06/21 08:52:34;;;;;;;1.92;0.70;;;15.80;93.60;;;;;;5095101;28;20040;-81
2021/06/21 08:55:03;;;;;;;1.98;0.75;;;15.80;93.60;;;;;;5095010;28;20020;-81
2021/06/21 08:57:37;;;;;;;3.05;0.77;;;15.80;93.50;;;;;;5096384;28;20022;-80
2021/06/21 09:00:06;;;;;;;1.27;0.60;;;15.80;93.50;;;;;;5096118;28;20056;-80
2021/06/21 09:02:32;;;;;;;1.17;0.60;;;15.80;93.50;;;;;;5094191;28;20058;-81
2021/06/21 09:04:59;;;;;;;1.98;0.63;;;15.80;93.50;;;;;;5077991;28;20028;-79
2021/06/21 09:07:27;;;;;;;2.45;0.65;;;15.90;93.50;;;;;;5078308;28;20024;-79
2021/06/21 09:09:54;;;;;;;0.88;0.47;;;15.90;93.50;;;;;;5095926;28;20125;-82
2021/06/21 09:12:23;;;;;;;1.17;0.60;;;15.80;93.80;;;;;;5094658;28;20047;-80
2021/06/21 09:14:50;;;;;;;1.27;0.68;;;15.90;93.50;;;;;;5095981;28;20054;-79
2021/06/21 09:17:20;;;;;;;1.98;0.57;;;15.90;93.40;;;;;;5095774;28;20032;-80
2021/06/21 09:19:55;;;;;;;1.77;0.60;;;15.90;93.50;;;;;;5094402;28;20077;-79
2021/06/21 09:22:30;;;;;;;1.52;0.70;;;15.90;93.50;;;;;;5093519;28;20012;-83
2021/06/21 09:25:01;;;;;;;2.70;0.55;;;15.90;93.40;;;;;;5093877;28;20103;-80
2021/06/21 09:27:27;;;;;;;1.45;0.50;;;15.90;93.40;;;;;;5091850;28;20524;-82
2021/06/21 09:29:53;;;;;;;1.15;0.60;;;15.90;93.40;;;;;;5077272;28;20063;-83
2021/06/21 09:32:20;;;;;;;1.17;0.55;;;16.00;93.50;;;;;;5095357;28;20020;-81
2021/06/21 09:34:46;;;;;;;1.20;0.40;;;16.10;93.50;;;;;;5094086;28;20024;-79
2021/06/21 09:37:16;;;;;;;1.25;0.50;;;16.00;93.30;;;;;;5095514;28;20415;-82
2021/06/21 09:39:43;;;;;;;1.25;0.57;;;16.10;93.30;;;;;;5095160;28;20104;-79
2021/06/21 09:42:15;;;;;;;1.40;0.57;;;16.20;93.30;;;;;;5094080;28;20103;-79
2021/06/21 09:44:48;;;;;;;2.15;0.68;;;16.20;93.20;;;;;;5093905;28;20081;-83
2021/06/21 09:47:25;;;;;;;1.40;0.50;;;16.30;93.20;;;;;;5095124;28;20024;-80
2021/06/21 09:50:07;;;;;;;1.27;0.50;;;16.30;93.10;;;;;;5095224;28;20501;-81
2021/06/21 09:52:33;;;;;;;1.35;0.60;;;16.40;93.00;;;;;;5093752;28;20395;-80
2021/06/21 09:55:08;;;;;;;1.20;0.40;;;16.40;92.90;;;;;;5093422;28;20023;-78
2021/06/21 09:57:38;;;;;;;1.23;0.43;;;16.40;92.80;;;;;;5093605;28;20036;-79
2021/06/21 10:00:09;;;;;;;1.67;0.40;;;16.50;92.90;;;;;;5093445;28;20433;-79
2021/06/21 10:02:35;;;;;;;2.28;0.50;;;16.60;92.80;;;;;;5093000;28;20075;-80
2021/06/21 10:05:02;;;;;;;0.90;0.32;;;16.60;92.60;;;;;;5094205;28;20456;-79
2021/06/21 10:07:32;;;;;;;0.95;0.45;;;16.60;92.60;;;;;;5094233;28;20028;-80
2021/06/21 10:10:01;;;;;;;1.77;0.47;;;16.70;92.60;;;;;;5096965;28;20034;-80
2021/06/21 10:12:28;;;;;;;0.77;0.40;;;16.70;92.50;;;;;;5096684;28;20028;-78
2021/06/21 10:14:54;;;;;;;0.50;0.30;;;16.80;92.50;;;;;;5095619;28;20032;-81
2021/06/21 10:17:21;;;;;;;0.68;0.30;;;16.80;92.40;;;;;;5093678;28;20020;-78
2021/06/21 10:19:46;;;;;;;3.40;0.40;;;16.80;92.30;;;;;;5075990;28;20032;-80
2021/06/21 10:22:12;;;;;;;2.25;0.50;;;16.80;92.10;;;;;;5076457;28;20040;-82
2021/06/21 10:24:38;;;;;;;1.88;0.50;;;16.70;92.00;;;;;;5092630;28;20047;-81
2021/06/21 10:27:06;;;;;;;0.88;0.40;;;16.60;92.30;;;;;;5093817;28;20383;-80
2021/06/21 10:29:33;;;;;;;0.65;0.30;;;16.60;92.00;;;;;;5093996;28;20475;-79
2021/06/21 10:32:03;;;;;;;0.70;0.30;;;16.60;92.10;;;;;;5092268;28;20111;-78
2021/06/21 10:34:29;;;;;;;0.73;0.30;;;16.60;92.20;;;;;;5091277;28;20031;-79
2021/06/21 10:36:57;;;;;;;0.68;0.30;;;16.70;92.40;;;;;;5093974;28;20024;-79
2021/06/21 10:39:47;;;;;;;1.33;0.43;;;16.70;92.40;;;;;;5074966;28;20510;-81
2021/06/21 10:42:12;;;;;;;1.15;0.50;;;16.90;92.50;;;;;;5076791;28;20101;-81
2021/06/21 10:44:55;;;;;;;1.90;0.40;;;16.90;92.30;;;;;;5093640;28;20383;-80
2021/06/21 10:47:34;;;;;;;0.68;0.45;;;17.00;92.20;;;;;;5093140;28;20024;-81
2021/06/21 10:50:01;;;;;;;1.13;0.60;;;17.10;92.10;;;;;;5092835;28;20020;-79
2021/06/21 10:52:43;;;;;;;1.50;0.50;;;17.10;91.90;;;;;;5094106;28;20059;-78
2021/06/21 10:55:32;;;;;;;0.82;0.40;;;17.10;91.70;;;;;;5094067;28;20436;-79
2021/06/21 10:57:59;;;;;;;1.15;0.40;;;17.10;91.70;;;;;;5094052;28;20047;-78
2021/06/21 11:00:43;;;;;;;0.70;0.40;;;17.10;91.60;;;;;;5092701;28;20020;-78
2021/06/21 11:05:55;;;;;;;0.85;0.50;;;17.20;91.50;;;;;;5094069;28;20032;-78
2021/06/21 11:08:23;;;;;;;2.67;0.63;;;17.20;91.40;;;;;;5092120;28;20432;-81
2021/06/21 11:10:57;;;;;;;0.55;0.30;;;17.30;91.50;;;;;;5093406;28;20028;-78
2021/06/21 11:13:43;;;;;;;0.70;0.32;;;17.30;91.40;;;;;;5092596;28;20024;-77
2021/06/21 11:16:15;;;;;;;1.00;0.35;;;17.40;90.80;;;;;;5091747;28;20457;-81
2021/06/21 11:18:41;;;;;;;2.28;0.50;;;17.40;90.70;;;;;;5091854;28;20491;-76
2021/06/21 11:21:17;;;;;;;0.77;0.40;;;17.50;90.80;;;;;;5092122;28;20076;-78
2021/06/21 11:23:47;;;;;;;1.20;0.40;;;17.60;90.90;;;;;;5093257;28;20023;-76
2021/06/21 11:26:14;;;;;;;0.80;0.40;;;17.70;91.00;;;;;;5091881;28;20027;-79
2021/06/21 11:28:47;;;;;;;0.65;0.30;;;17.90;90.80;;;;;;5092168;28;20028;-78
2021/06/21 11:31:22;;;;;;;3.25;0.70;;;17.90;90.40;;;;;;5075437;28;20036;-75
2021/06/21 11:33:52;;;;;;;0.70;0.40;;;17.90;90.10;;;;;;5093268;28;20063;-75
2021/06/21 11:36:46;;;;;;;3.40;0.45;;;17.90;90.10;;;;;;5093307;28;20112;-76
2021/06/21 11:39:27;;;;;;;2.40;0.40;;;17.90;90.00;;;;;;5093149;28;20379;-76
2021/06/21 11:42:03;;;;;;;1.02;0.50;;;17.90;89.60;;;;;;5093361;28;20027;-76
2021/06/21 11:44:40;;;;;;;1.63;0.60;;;17.90;89.50;;;;;;5091927;28;20020;-76
2021/06/21 11:47:19;;;;;;;2.92;0.30;;;18.00;89.40;;;;;;5091911;28;20396;-76
2021/06/21 11:49:46;;;;;;;0.80;0.35;;;18.00;89.10;;;;;;5091936;28;20028;-76
2021/06/21 11:52:20;;;;;;;1.15;0.40;;;18.00;88.60;;;;;;5075079;28;20433;-76
2021/06/21 11:54:48;;;;;;;2.00;0.50;;;18.10;88.80;;;;;;5093014;28;20032;-76
2021/06/21 11:57:15;;;;;;;0.90;0.40;;;18.20;88.60;;;;;;5075319;28;20024;-76
2021/06/21 11:59:45;;;;;;;2.35;0.40;;;18.30;88.60;;;;;;5075095;28;20082;-76
2021/06/21 12:02:18;;;;;;;0.77;0.40;;;18.40;88.50;;;;;;5092915;28;20056;-77
2021/06/21 12:04:45;;;;;;;2.97;0.50;;;18.50;88.20;;;;;;5091750;28;20058;-76
2021/06/21 12:07:32;;;;;;;0.80;0.40;;;18.60;87.10;;;;;;5093117;28;20021;-76
2021/06/21 12:09:59;;;;;;;1.10;0.50;;;18.60;86.60;;;;;;5092946;28;20032;-76
2021/06/21 12:12:27;;;;;;;2.00;0.50;;;18.70;86.90;;;;;;5091852;28;20390;-76
2021/06/21 12:14:54;;;;;;;1.25;0.50;;;18.80;87.20;;;;;;5092982;28;20032;-75
2021/06/21 12:17:25;;;;;;;1.05;0.52;;;19.00;86.30;;;;;;5091765;28;20259;-75
2021/06/21 12:20:17;;;;;;;1.58;0.60;;;19.00;85.40;;;;;;5092657;28;20498;-75
2021/06/21 12:22:57;;;;;;;4.13;0.50;;;19.00;84.40;;;;;;5092719;28;20028;-75
2021/06/21 12:25:29;;;;;;;1.98;0.68;;;19.00;84.20;;;;;;5093816;28;20024;-75
2021/06/21 12:28:09;;;;;;;1.60;0.50;;;19.00;84.30;;;;;;5094783;28;20016;-75
2021/06/21 12:30:57;;;;;;;1.48;0.60;;;18.90;84.20;;;;;;5088507;28;20027;-75
2021/06/21 12:33:33;;;;;;;1.35;0.50;;;19.00;83.80;;;;;;5093348;28;20062;-75
2021/06/21 12:36:24;;;;;;;2.58;0.60;;;19.00;83.50;;;;;;5095817;28;20040;-75
2021/06/21 12:38:58;;;;;;;0.98;0.50;;;19.00;82.80;;;;;;5093043;28;20483;-75
2021/06/21 12:41:25;;;;;;;2.00;0.52;;;18.90;83.00;;;;;;5095934;28;20020;-75
2021/06/21 12:43:57;;;;;;;1.45;0.60;;;19.00;83.20;;;;;;5095724;28;20039;-76
2021/06/21 12:46:26;;;;;;;1.27;0.60;;;19.00;82.90;;;;;;5094699;28;20022;-75
2021/06/21 12:48:53;;;;;;;1.33;0.68;;;19.00;82.70;;;;;;5096057;28;20020;-75
2021/06/21 12:51:20;;;;;;;1.52;0.50;;;19.00;82.20;;;;;;5078042;28;20387;-76
2021/06/21 12:53:51;;;;;;;2.70;0.95;;;18.90;82.10;;;;;;5096057;28;20028;-75
2021/06/21 12:56:34;;;;;;;2.47;0.73;;;18.70;81.70;;;;;;5094646;28;20491;-75
2021/06/21 12:59:01;;;;;;;2.20;0.63;;;18.60;82.40;;;;;;5094530;28;20028;-75